createdAt,value
2022-10-11T00:01:41.709Z,2.10
2022-10-11T00:04:09.486Z,2.20
2022-10-11T00:06:37.856Z,2.22
2022-10-11T00:09:05.662Z,2.42
2022-10-11T00:11:32.761Z,2.13
2022-10-11T00:13:59.179Z,1.90
2022-10-11T00:16:25.603Z,1.83
2022-10-11T00:18:52.223Z,1.85
2022-10-11T00:21:20.565Z,1.85
2022-10-11T00:23:47.816Z,1.95
2022-10-11T00:26:14.447Z,1.85
2022-10-11T00:28:41.461Z,1.55
2022-10-11T00:31:12.082Z,1.92
2022-10-11T00:33:38.619Z,3.05
2022-10-11T00:36:06.269Z,1.80
2022-10-11T00:38:33.181Z,1.88
2022-10-11T00:41:00.702Z,2.00
2022-10-11T00:43:29.855Z,2.15
2022-10-11T00:45:56.300Z,1.95
2022-10-11T00:48:36.412Z,1.67
2022-10-11T00:51:07.269Z,1.77
2022-10-11T00:53:34.142Z,2.10
2022-10-11T00:56:10.239Z,2.25
2022-10-11T00:58:38.145Z,1.73
2022-10-11T01:01:04.656Z,2.00
2022-10-11T01:03:31.810Z,2.03
2022-10-11T01:05:58.256Z,1.90
2022-10-11T01:08:25.566Z,1.88
2022-10-11T01:10:52.105Z,1.80
2022-10-11T01:13:32.401Z,2.08
2022-10-11T01:16:26.161Z,2.42
2022-10-11T01:19:21.947Z,1.80
2022-10-11T01:21:53.783Z,2.50
2022-10-11T01:24:46.913Z,2.03
2022-10-11T01:27:54.480Z,2.40
2022-10-11T01:30:32.918Z,2.22
2022-10-11T01:33:05.262Z,2.55
2022-10-11T01:35:45.801Z,3.05
2022-10-11T01:38:30.073Z,2.92
2022-10-11T01:41:02.530Z,2.10
2022-10-11T01:43:29.723Z,2.83
2022-10-11T01:45:58.040Z,2.33
2022-10-11T01:48:25.002Z,2.38
2022-10-11T01:51:03.106Z,2.10
2022-10-11T01:53:53.489Z,2.30
2022-10-11T01:56:28.397Z,2.10
2022-10-11T01:59:14.738Z,2.33
2022-10-11T02:02:11.763Z,2.00
2022-10-11T02:04:48.146Z,2.47
2022-10-11T02:07:21.835Z,1.92
2022-10-11T02:09:57.894Z,2.28
2022-10-11T02:12:32.203Z,1.85
2022-10-11T02:15:02.706Z,1.80
2022-10-11T02:17:33.887Z,2.20
2022-10-11T02:20:06.723Z,2.20
2022-10-11T02:22:38.631Z,2.22
2022-10-11T02:25:09.829Z,2.13
2022-10-11T02:27:38.699Z,1.90
2022-10-11T02:30:08.112Z,1.85
2022-10-11T02:32:36.344Z,1.90
2022-10-11T02:35:03.650Z,2.20
2022-10-11T02:37:39.377Z,2.03
2022-10-11T02:40:27.579Z,2.17
2022-10-11T02:43:03.410Z,2.13
2022-10-11T02:45:42.719Z,1.90
2022-10-11T02:48:11.621Z,2.20
2022-10-11T02:50:40.388Z,2.03
2022-10-11T02:53:07.227Z,1.92
2022-10-11T02:55:34.126Z,2.65
2022-10-11T02:58:01.050Z,1.67
2022-10-11T03:00:28.093Z,1.90
2022-10-11T03:02:54.489Z,1.80
2022-10-11T03:05:20.976Z,2.30
2022-10-11T03:07:47.426Z,2.10
2022-10-11T03:10:13.997Z,2.40
2022-10-11T03:12:40.506Z,1.92
2022-10-11T03:15:07.338Z,1.98
2022-10-11T03:17:37.443Z,2.28
2022-10-11T03:20:05.473Z,2.03
2022-10-11T03:22:32.090Z,1.92
2022-10-11T03:25:03.354Z,2.00
2022-10-11T03:29:57.083Z,1.92
2022-10-11T03:32:23.618Z,1.75
2022-10-11T03:34:50.038Z,1.90
2022-10-11T03:37:18.195Z,2.13
2022-10-11T03:39:45.680Z,2.35
2022-10-11T03:42:12.731Z,2.03
2022-10-11T03:44:39.271Z,2.40
2022-10-11T03:47:06.117Z,2.28
2022-10-11T03:49:32.521Z,2.05
2022-10-11T03:51:59.131Z,2.10
2022-10-11T03:54:25.829Z,2.45
2022-10-11T03:56:52.367Z,1.88
2022-10-11T03:59:18.906Z,2.50
2022-10-11T04:01:46.037Z,1.80
2022-10-11T04:04:12.559Z,2.13
2022-10-11T04:06:39.107Z,1.95
2022-10-11T04:09:05.536Z,2.47
2022-10-11T04:11:31.962Z,2.30
2022-10-11T04:13:58.557Z,2.30
2022-10-11T04:16:25.084Z,1.90
2022-10-11T04:18:51.532Z,1.80
2022-10-11T04:21:17.947Z,2.13
2022-10-11T04:23:44.361Z,2.22
2022-10-11T04:26:10.871Z,2.00
2022-10-11T04:28:37.484Z,2.40
2022-10-11T04:31:05.110Z,1.88
2022-10-11T04:33:31.565Z,2.30
2022-10-11T04:35:57.967Z,2.17
2022-10-11T04:38:24.486Z,2.38
2022-10-11T04:40:51.147Z,2.72
2022-10-11T04:43:18.908Z,2.85
2022-10-11T04:45:45.362Z,3.05
2022-10-11T04:48:11.895Z,2.65
2022-10-11T04:50:38.394Z,2.97
2022-10-11T04:53:04.850Z,3.72
2022-10-11T04:55:31.273Z,2.42
2022-10-11T04:57:57.864Z,2.60
2022-10-11T05:00:24.329Z,2.53
2022-10-11T05:02:52.170Z,2.63
2022-10-11T05:05:18.574Z,2.42
2022-10-11T05:07:45.047Z,2.60
2022-10-11T05:10:11.484Z,2.72
2022-10-11T05:12:37.921Z,2.92
2022-10-11T05:15:04.749Z,2.58
2022-10-11T05:17:31.357Z,3.30
2022-10-11T05:19:57.814Z,2.30
2022-10-11T05:22:24.370Z,2.53
2022-10-11T05:24:50.855Z,2.58
2022-10-11T05:27:17.314Z,2.80
2022-10-11T05:29:43.818Z,2.83
2022-10-11T05:32:10.269Z,3.53
2022-10-11T05:34:36.698Z,3.42
2022-10-11T05:37:03.150Z,3.30
2022-10-11T05:39:29.852Z,3.17
2022-10-11T05:41:56.840Z,2.95
2022-10-11T05:44:23.278Z,3.00
2022-10-11T05:46:49.881Z,3.70
2022-10-11T05:49:16.326Z,3.70
2022-10-11T05:51:42.729Z,3.97
2022-10-11T05:54:09.241Z,3.47
2022-10-11T05:56:35.681Z,3.28
2022-10-11T05:59:02.709Z,4.22
2022-10-11T06:01:29.563Z,4.03
2022-10-11T06:03:56.062Z,3.53
2022-10-11T06:06:22.546Z,3.22
2022-10-11T06:08:49.145Z,4.10
2022-10-11T06:11:21.819Z,3.72
2022-10-11T06:13:48.695Z,3.38
2022-10-11T06:16:16.114Z,4.05
2022-10-11T06:18:42.515Z,3.70
2022-10-11T06:21:09.010Z,3.58
2022-10-11T06:23:35.451Z,4.90
2022-10-11T06:26:07.675Z,4.60
2022-10-11T06:28:35.830Z,5.28
2022-10-11T06:31:05.370Z,5.78
2022-10-11T06:33:31.954Z,6.65
2022-10-11T06:36:00.312Z,5.50
2022-10-11T06:38:27.533Z,5.63
2022-10-11T06:40:54.101Z,5.95
2022-10-11T06:43:21.217Z,5.97
2022-10-11T06:45:47.606Z,6.72
2022-10-11T06:48:14.256Z,5.43
2022-10-11T06:50:59.009Z,6.22
2022-10-11T06:53:26.236Z,6.97
2022-10-11T06:55:52.711Z,4.95
2022-10-11T06:58:19.384Z,4.57
2022-10-11T07:00:45.966Z,4.38
2022-10-11T07:03:12.399Z,4.47
2022-10-11T07:05:38.843Z,3.85
2022-10-11T07:08:05.712Z,3.83
2022-10-11T07:10:32.124Z,5.38
2022-10-11T07:13:00.898Z,4.90
2022-10-11T07:15:27.290Z,3.67
2022-10-11T07:17:53.896Z,4.20
2022-10-11T07:20:20.345Z,4.68
2022-10-11T07:22:46.835Z,4.25
2022-10-11T07:25:13.246Z,4.82
2022-10-11T07:27:39.773Z,3.42
2022-10-11T07:30:06.758Z,4.18
2022-10-11T07:32:33.187Z,4.82
2022-10-11T07:34:59.641Z,4.68
2022-10-11T07:37:26.047Z,4.20
2022-10-11T07:39:52.480Z,4.03
2022-10-11T07:42:20.360Z,3.38
2022-10-11T07:44:46.851Z,4.05
2022-10-11T07:47:13.340Z,3.75
2022-10-11T07:49:39.762Z,4.28
2022-10-11T07:52:06.198Z,3.75
2022-10-11T07:54:33.558Z,2.90
2022-10-11T07:56:59.974Z,2.85
2022-10-11T07:59:26.432Z,2.85
2022-10-11T08:01:52.883Z,3.10
2022-10-11T08:04:21.206Z,3.00
2022-10-11T08:06:51.070Z,3.13
2022-10-11T08:09:19.859Z,3.00
2022-10-11T08:11:46.321Z,3.08
2022-10-11T08:14:12.752Z,3.17
2022-10-11T08:16:39.697Z,3.42
2022-10-11T08:19:06.652Z,2.70
2022-10-11T08:21:33.341Z,3.03
2022-10-11T08:24:01.750Z,3.30
2022-10-11T08:26:28.227Z,2.53
2022-10-11T08:28:54.707Z,3.10
2022-10-11T08:31:21.271Z,3.20
2022-10-11T08:33:47.704Z,3.20
2022-10-11T08:36:14.152Z,3.10
2022-10-11T08:38:40.997Z,3.35
2022-10-11T08:41:43.579Z,3.17
2022-10-11T08:44:58.205Z,3.25
2022-10-11T08:47:27.503Z,2.80
2022-10-11T08:49:54.853Z,2.67
2022-10-11T08:52:26.727Z,3.40
2022-10-11T08:55:01.479Z,2.90
2022-10-11T08:57:31.531Z,2.20
2022-10-11T09:00:00.705Z,2.47
2022-10-11T09:03:07.440Z,2.40
2022-10-11T09:05:57.219Z,2.42
2022-10-11T09:08:41.876Z,2.28
2022-10-11T09:11:35.147Z,2.40
2022-10-11T09:14:27.802Z,2.42
2022-10-11T09:17:05.963Z,2.20
2022-10-11T09:19:57.175Z,2.50
2022-10-11T09:22:38.237Z,2.28
2022-10-11T09:25:25.373Z,2.40
2022-10-11T09:28:03.264Z,2.20
2022-10-11T09:30:30.814Z,2.20
2022-10-11T09:33:20.534Z,2.13
2022-10-11T09:35:49.999Z,1.95
2022-10-11T09:38:48.879Z,2.40
2022-10-11T09:41:23.385Z,1.77
2022-10-11T09:43:51.654Z,1.98
2022-10-11T09:46:23.451Z,2.10
2022-10-11T09:48:51.085Z,2.33
2022-10-11T09:51:21.260Z,2.65
2022-10-11T09:53:54.937Z,2.00
2022-10-11T09:56:23.438Z,2.08
2022-10-11T09:58:50.144Z,2.30
2022-10-11T10:01:24.932Z,2.15
2022-10-11T10:04:11.823Z,2.00
2022-10-11T10:06:38.873Z,2.30
2022-10-11T10:09:25.996Z,1.75
2022-10-11T10:11:54.878Z,2.17
2022-10-11T10:14:25.261Z,2.05
2022-10-11T10:17:04.236Z,2.03
2022-10-11T10:19:44.497Z,1.83
2022-10-11T10:22:28.384Z,2.25
2022-10-11T10:27:28.522Z,1.90
2022-10-11T10:30:09.508Z,2.05
2022-10-11T10:32:48.548Z,1.95
2022-10-11T10:35:30.030Z,2.08
2022-10-11T10:38:22.815Z,2.08
2022-10-11T10:40:55.070Z,2.10
2022-10-11T10:43:28.704Z,2.05
2022-10-11T10:46:22.854Z,1.95
2022-10-11T10:49:34.566Z,1.75
2022-10-11T10:52:05.898Z,2.13
2022-10-11T10:55:00.703Z,1.80
2022-10-11T10:57:36.985Z,1.92
2022-10-11T11:00:14.951Z,1.50
2022-10-11T11:03:03.497Z,1.80
2022-10-11T11:05:44.469Z,1.83
2022-10-11T11:08:35.305Z,1.60
2022-10-11T11:11:23.048Z,1.52
2022-10-11T11:13:58.539Z,1.90
2022-10-11T11:16:31.051Z,1.67
2022-10-11T11:19:09.155Z,2.10
2022-10-11T11:21:48.157Z,1.38
2022-10-11T11:24:47.290Z,1.50
2022-10-11T11:27:38.493Z,2.00
2022-10-11T11:30:10.334Z,1.75
2022-10-11T11:32:48.445Z,1.90
2022-10-11T11:35:26.153Z,2.10
2022-10-11T11:38:03.825Z,1.83
2022-10-11T11:40:41.418Z,1.73
2022-10-11T11:43:35.132Z,1.63
2022-10-11T11:46:10.175Z,1.95
2022-10-11T11:48:38.324Z,2.45
2022-10-11T11:51:25.530Z,1.73
2022-10-11T11:56:59.696Z,1.67
2022-10-11T11:59:47.705Z,1.67
2022-10-11T12:02:51.579Z,1.75
2022-10-11T12:05:22.626Z,1.70
2022-10-11T12:07:56.386Z,1.60
2022-10-11T12:10:49.200Z,2.13
2022-10-11T12:13:32.175Z,1.80
2022-10-11T12:16:15.177Z,1.70
2022-10-11T12:18:56.990Z,1.35
2022-10-11T12:21:31.579Z,1.73
2022-10-11T12:24:12.522Z,1.10
2022-10-11T12:26:47.620Z,1.60
2022-10-11T12:29:17.053Z,1.50
2022-10-11T12:32:14.092Z,1.60
2022-10-11T12:34:42.871Z,1.40
2022-10-11T12:37:18.733Z,1.80
2022-10-11T12:39:51.938Z,1.30
2022-10-11T12:42:36.880Z,1.40
2022-10-11T12:45:12.719Z,1.40
2022-10-11T12:47:52.101Z,1.45
2022-10-11T12:50:39.101Z,1.58
2022-10-11T12:53:34.430Z,1.70
2022-10-11T12:56:16.424Z,1.30
2022-10-11T12:58:47.744Z,2.00
2022-10-11T13:01:18.591Z,1.35
2022-10-11T13:03:50.801Z,2.10
2022-10-11T13:06:26.880Z,2.10
2022-10-11T13:09:16.827Z,1.42
2022-10-11T13:11:50.767Z,1.58
2022-10-11T13:14:20.394Z,1.52
2022-10-11T13:17:06.210Z,1.70
2022-10-11T13:19:35.032Z,1.73
2022-10-11T13:22:14.997Z,1.58
2022-10-11T13:24:42.472Z,1.30
2022-10-11T13:27:18.584Z,1.70
2022-10-11T13:29:46.171Z,1.77
2022-10-11T13:32:23.721Z,1.50
2022-10-11T13:35:00.394Z,1.65
2022-10-11T13:37:29.766Z,1.42
2022-10-11T13:39:57.429Z,1.35
2022-10-11T13:42:29.012Z,1.85
2022-10-11T13:44:55.592Z,1.58
2022-10-11T13:47:27.282Z,1.50
2022-10-11T13:50:22.486Z,1.42
2022-10-11T13:53:23.003Z,1.17
2022-10-11T13:55:55.900Z,1.55
2022-10-11T13:58:28.213Z,1.40
2022-10-11T14:01:07.202Z,1.38
2022-10-11T14:03:40.487Z,1.40
2022-10-11T14:06:07.778Z,1.60
2022-10-11T14:08:51.739Z,1.70
2022-10-11T14:13:58.678Z,1.50
2022-10-11T14:16:24.998Z,1.50
2022-10-11T14:19:03.039Z,1.35
2022-10-11T14:21:33.414Z,1.15
2022-10-11T14:24:06.127Z,1.40
2022-10-11T14:26:38.205Z,1.90
2022-10-11T14:29:21.007Z,1.77
2022-10-11T14:31:47.495Z,1.50
2022-10-11T14:34:18.819Z,1.50
2022-10-11T14:36:45.381Z,1.42
2022-10-11T14:39:18.391Z,1.70
2022-10-11T14:41:45.915Z,1.58
2022-10-11T14:44:13.062Z,1.17
2022-10-11T14:46:40.811Z,2.25
2022-10-11T14:49:35.078Z,1.55
2022-10-11T14:52:02.447Z,1.80
2022-10-11T14:54:29.905Z,1.50
2022-10-11T14:56:58.278Z,1.50
2022-10-11T14:59:27.041Z,1.50
2022-10-11T15:01:54.465Z,1.65
2022-10-11T15:04:22.577Z,1.73
2022-10-11T15:06:49.486Z,1.30
2022-10-11T15:09:17.059Z,1.88
2022-10-11T15:11:43.835Z,1.50
2022-10-11T15:14:10.391Z,1.88
2022-10-11T15:16:36.799Z,1.52
2022-10-11T15:19:03.412Z,1.55
2022-10-11T15:21:29.970Z,1.60
2022-10-11T15:23:56.711Z,1.30
2022-10-11T15:26:28.237Z,1.58
2022-10-11T15:28:56.894Z,1.60
2022-10-11T15:31:24.056Z,1.50
2022-10-11T15:33:50.693Z,1.13
2022-10-11T15:36:21.159Z,1.73
2022-10-11T15:38:48.381Z,1.30
2022-10-11T15:41:16.839Z,1.30
2022-10-11T15:43:44.548Z,1.60
2022-10-11T15:46:17.434Z,1.50
2022-10-11T15:48:44.919Z,1.80
2022-10-11T15:51:11.526Z,1.58
2022-10-11T15:53:37.936Z,1.35
2022-10-11T15:56:07.784Z,1.58
2022-10-11T15:58:38.445Z,1.63
2022-10-11T16:01:17.125Z,1.50
2022-10-11T16:03:44.454Z,1.52
2022-10-11T16:06:11.704Z,1.38
2022-10-11T16:08:39.410Z,1.35
2022-10-11T16:11:07.949Z,1.95
2022-10-11T16:13:35.243Z,1.75
2022-10-11T16:16:04.854Z,1.75
2022-10-11T16:18:35.303Z,1.30
2022-10-11T16:21:06.700Z,2.03
2022-10-11T16:23:34.203Z,1.73
2022-10-11T16:26:03.662Z,1.50
2022-10-11T16:28:30.859Z,1.50
2022-10-11T16:30:57.453Z,2.20
2022-10-11T16:33:24.297Z,2.05
2022-10-11T16:35:50.837Z,2.47
2022-10-11T16:38:17.519Z,2.35
2022-10-11T16:40:44.023Z,2.65
2022-10-11T16:43:10.553Z,2.17
2022-10-11T16:45:37.510Z,2.47
2022-10-11T16:48:04.710Z,2.08
2022-10-11T16:50:38.308Z,2.40
2022-10-11T16:53:05.686Z,3.55
2022-10-11T16:55:32.205Z,2.70
2022-10-11T16:57:58.757Z,4.50
2022-10-11T17:00:25.206Z,4.70
2022-10-11T17:02:51.659Z,4.82
2022-10-11T17:05:18.078Z,5.15
2022-10-11T17:07:44.560Z,4.80
2022-10-11T17:10:11.011Z,5.50
2022-10-11T17:12:38.581Z,4.40
2022-10-11T17:15:06.049Z,4.82
2022-10-11T17:17:32.585Z,6.22
2022-10-11T17:19:59.970Z,5.90
2022-10-11T17:22:26.649Z,5.82
2022-10-11T17:24:53.233Z,7.18
2022-10-11T17:27:19.674Z,6.03
2022-10-11T17:29:46.150Z,5.78
2022-10-11T17:32:12.713Z,5.68
2022-10-11T17:34:39.131Z,6.25
2022-10-11T17:37:06.190Z,7.25
2022-10-11T17:39:32.610Z,5.55
2022-10-11T17:42:03.355Z,6.28
2022-10-11T17:44:29.787Z,6.03
2022-10-11T17:46:59.457Z,6.53
2022-10-11T17:49:25.912Z,6.53
2022-10-11T17:51:53.778Z,6.30
2022-10-11T17:54:20.231Z,5.07
2022-10-11T17:56:46.787Z,5.85
2022-10-11T17:59:16.911Z,6.90
2022-10-11T18:01:43.514Z,7.22
2022-10-11T18:04:29.899Z,6.45
2022-10-11T18:06:56.481Z,6.63
2022-10-11T18:09:23.731Z,7.93
2022-10-11T18:11:50.751Z,7.32
2022-10-11T18:14:17.603Z,7.53
2022-10-11T18:16:44.019Z,6.57
2022-10-11T18:19:13.151Z,6.43
2022-10-11T18:21:39.855Z,7.43
2022-10-11T18:24:14.815Z,6.28
2022-10-11T18:26:42.843Z,6.18
2022-10-11T18:29:09.287Z,5.70
2022-10-11T18:31:35.756Z,6.15
2022-10-11T18:34:04.524Z,6.25
2022-10-11T18:36:31.731Z,6.35
2022-10-11T18:39:03.750Z,5.43
2022-10-11T18:41:34.208Z,5.43
2022-10-11T18:44:04.319Z,5.07
2022-10-11T18:46:31.116Z,4.05
2022-10-11T18:49:04.678Z,4.18
2022-10-11T18:51:39.641Z,3.47
2022-10-11T18:54:08.204Z,3.40
2022-10-11T18:56:36.892Z,3.40
2022-10-11T18:59:05.413Z,3.72
2022-10-11T19:01:34.980Z,3.10
2022-10-11T19:04:04.678Z,3.03
2022-10-11T19:06:40.264Z,3.25
2022-10-11T19:09:21.508Z,2.60
2022-10-11T19:11:56.935Z,2.42
2022-10-11T19:14:26.208Z,2.60
2022-10-11T19:16:54.329Z,3.10
2022-10-11T19:19:24.110Z,2.50
2022-10-11T19:21:53.825Z,3.00
2022-10-11T19:24:23.724Z,3.30
2022-10-11T19:26:52.677Z,3.10
2022-10-11T19:29:21.215Z,3.25
2022-10-11T19:31:59.261Z,3.00
2022-10-11T19:34:27.935Z,3.55
2022-10-11T19:36:59.250Z,2.40
2022-10-11T19:39:25.862Z,2.38
2022-10-11T19:41:53.569Z,3.45
2022-10-11T19:44:22.188Z,3.53
2022-10-11T19:46:52.769Z,3.92
2022-10-11T19:49:25.503Z,2.63
2022-10-11T19:51:52.902Z,2.88
2022-10-11T19:54:20.175Z,3.33
2022-10-11T19:56:47.951Z,3.10
2022-10-11T19:59:15.049Z,2.90
2022-10-11T20:01:42.857Z,2.85
2022-10-11T20:04:22.926Z,2.83
2022-10-11T20:06:54.157Z,3.47
2022-10-11T20:09:36.014Z,3.35
2022-10-11T20:12:05.144Z,2.78
2022-10-11T20:14:31.795Z,2.97
2022-10-11T20:16:58.246Z,3.15
2022-10-11T20:19:30.678Z,3.50
2022-10-11T20:21:57.789Z,2.55
2022-10-11T20:24:24.398Z,3.05
2022-10-11T20:26:50.831Z,3.22
2022-10-11T20:29:17.302Z,3.40
2022-10-11T20:31:43.719Z,3.17
2022-10-11T20:34:10.358Z,3.03
2022-10-11T20:36:37.277Z,3.63
2022-10-11T20:39:05.046Z,3.38
2022-10-11T20:41:34.840Z,3.50
2022-10-11T20:44:01.838Z,2.90
2022-10-11T20:46:31.350Z,3.08
2022-10-11T20:49:02.063Z,2.80
2022-10-11T20:51:30.596Z,2.72
2022-10-11T20:53:58.317Z,3.15
2022-10-11T20:56:25.402Z,2.70
2022-10-11T20:58:55.293Z,3.13
2022-10-11T21:01:25.929Z,2.70
2022-10-11T21:03:52.634Z,2.60
2022-10-11T21:06:19.078Z,2.40
2022-10-11T21:08:45.481Z,2.55
2022-10-11T21:11:13.289Z,2.80
2022-10-11T21:13:40.411Z,2.53
2022-10-11T21:16:11.082Z,2.65
2022-10-11T21:18:37.853Z,2.78
2022-10-11T21:21:09.421Z,3.53
2022-10-11T21:23:35.970Z,3.88
2022-10-11T21:26:04.193Z,2.90
2022-10-11T21:28:30.813Z,3.72
2022-10-11T21:31:06.533Z,3.42
2022-10-11T21:33:34.257Z,3.42
2022-10-11T21:36:09.091Z,3.45
2022-10-11T21:38:36.211Z,3.72
2022-10-11T21:41:08.022Z,3.90
2022-10-11T21:43:35.878Z,4.28
2022-10-11T21:46:17.171Z,5.55
2022-10-11T21:48:43.826Z,6.22
2022-10-11T21:51:15.512Z,6.68
2022-10-11T21:56:08.597Z,5.80
2022-10-11T21:58:35.030Z,5.15
2022-10-11T22:01:01.456Z,5.13
2022-10-11T22:03:28.181Z,5.63
2022-10-11T22:05:54.619Z,5.13
2022-10-11T22:08:21.115Z,4.57
2022-10-11T22:10:58.312Z,4.35
2022-10-11T22:13:26.583Z,4.88
2022-10-11T22:15:53.199Z,4.53
2022-10-11T22:18:19.999Z,3.97
2022-10-11T22:20:46.439Z,4.13
2022-10-11T22:23:12.966Z,4.13
2022-10-11T22:25:39.775Z,3.50
2022-10-11T22:28:07.008Z,3.95
2022-10-11T22:30:33.583Z,4.18
2022-10-11T22:33:00.133Z,4.10
2022-10-11T22:35:26.540Z,3.95
2022-10-11T22:37:53.101Z,4.38
2022-10-11T22:40:20.004Z,4.90
2022-10-11T22:42:47.010Z,4.35
2022-10-11T22:45:13.473Z,4.18
2022-10-11T22:47:42.859Z,3.75
2022-10-11T22:50:09.693Z,4.03
2022-10-11T22:52:36.167Z,3.90
2022-10-11T22:55:02.940Z,3.97
2022-10-11T22:57:29.548Z,3.30
2022-10-11T22:59:55.956Z,4.00
2022-10-11T23:02:22.385Z,3.67
2022-10-11T23:04:48.878Z,4.05
2022-10-11T23:07:15.347Z,4.70
2022-10-11T23:09:41.745Z,4.40
2022-10-11T23:12:08.215Z,4.47
2022-10-11T23:14:34.658Z,4.18
2022-10-11T23:17:01.071Z,3.90
2022-10-11T23:19:28.799Z,3.38
2022-10-11T23:21:55.437Z,3.55
2022-10-11T23:24:22.078Z,3.90
2022-10-11T23:26:48.531Z,3.50
2022-10-11T23:29:14.963Z,4.15
2022-10-11T23:31:41.378Z,3.22
2022-10-11T23:34:07.854Z,3.85
2022-10-11T23:36:35.740Z,4.22
2022-10-11T23:39:02.324Z,4.35
2022-10-11T23:41:29.947Z,3.60
2022-10-11T23:43:56.967Z,4.07
2022-10-11T23:46:23.585Z,3.50
2022-10-11T23:48:50.320Z,3.20
2022-10-11T23:51:16.723Z,3.42
2022-10-11T23:53:43.475Z,3.33
2022-10-11T23:56:11.250Z,3.70
2022-10-11T23:58:39.535Z,3.47
